createdAt,value
2023-04-13T00:02:03.667Z,17.45
2023-04-13T00:12:12.020Z,16.48
2023-04-13T00:22:20.122Z,23.20
2023-04-13T00:32:26.849Z,21.80
2023-04-13T00:42:31.396Z,26.10
2023-04-13T00:52:40.160Z,26.93
2023-04-13T01:02:43.762Z,24.70
2023-04-13T01:13:20.924Z,29.77
2023-04-13T01:23:40.700Z,28.87
2023-04-13T01:33:47.078Z,26.77
2023-04-13T01:43:51.163Z,32.20
2023-04-13T01:54:28.292Z,31.23
2023-04-13T02:04:33.782Z,35.57
2023-04-13T02:14:38.765Z,26.20
2023-04-13T02:24:43.305Z,30.63
2023-04-13T02:34:45.623Z,29.77
2023-04-13T02:44:51.383Z,31.47
2023-04-13T02:54:59.204Z,28.30
2023-04-13T03:05:07.151Z,30.57
2023-04-13T03:15:13.400Z,29.90
2023-04-13T03:25:18.210Z,29.13
2023-04-13T03:35:25.672Z,27.30
2023-04-13T03:45:27.949Z,29.63
2023-04-13T03:55:35.124Z,27.10
2023-04-13T04:05:42.552Z,28.07
2023-04-13T04:15:47.372Z,28.10
2023-04-13T04:25:59.632Z,25.07
2023-04-13T04:36:14.481Z,24.40
2023-04-13T04:46:27.639Z,27.07
2023-04-13T04:56:36.195Z,24.87
2023-04-13T05:06:41.745Z,22.73
2023-04-13T05:16:48.009Z,23.40
2023-04-13T05:27:05.003Z,25.20
2023-04-13T05:37:12.471Z,22.57
2023-04-13T05:47:22.260Z,20.42
2023-04-13T05:57:27.761Z,21.75
2023-04-13T06:07:31.035Z,21.70
2023-04-13T06:17:37.404Z,20.73
2023-04-13T06:27:46.757Z,23.00
2023-04-13T06:37:49.523Z,21.02
2023-04-13T06:47:58.268Z,19.88
2023-04-13T06:58:01.072Z,15.13
2023-04-13T07:08:03.500Z,15.40
2023-04-13T07:18:08.689Z,15.40
2023-04-13T07:28:14.214Z,15.43
2023-04-13T07:38:18.830Z,12.25
2023-04-13T07:48:23.485Z,15.68
2023-04-13T07:58:26.628Z,18.35
2023-04-13T08:08:30.390Z,16.73
2023-04-13T08:18:35.937Z,17.48
2023-04-13T08:28:42.703Z,17.00
2023-04-13T08:38:44.943Z,16.27
2023-04-13T08:48:53.910Z,15.40
2023-04-13T08:59:07.803Z,14.10
2023-04-13T09:09:16.083Z,16.42
2023-04-13T09:19:30.575Z,11.10
2023-04-13T09:29:39.100Z,12.65
2023-04-13T09:39:43.648Z,12.40
2023-04-13T09:49:53.266Z,10.52
2023-04-13T09:59:56.877Z,11.45
2023-04-13T10:10:02.032Z,12.73
2023-04-13T10:20:14.084Z,12.57
2023-04-13T10:30:17.823Z,11.00
2023-04-13T10:40:29.117Z,10.85
2023-04-13T10:50:38.444Z,11.52
2023-04-13T11:00:46.289Z,8.32
2023-04-13T11:11:04.373Z,7.38
2023-04-13T11:21:14.392Z,9.05
2023-04-13T11:31:18.950Z,8.52
2023-04-13T11:41:23.735Z,7.10
2023-04-13T11:51:29.628Z,6.47
2023-04-13T12:01:36.640Z,7.43
2023-04-13T12:11:50.036Z,5.45
2023-04-13T12:22:01.306Z,6.57
2023-04-13T12:32:14.850Z,4.43
2023-04-13T12:42:20.118Z,9.85
2023-04-13T12:52:34.394Z,7.25
2023-04-13T13:02:38.437Z,7.10
2023-04-13T13:12:40.663Z,5.82
2023-04-13T13:22:45.358Z,4.50
2023-04-13T13:32:47.585Z,4.05
2023-04-13T13:42:52.333Z,3.78
2023-04-13T13:53:03.998Z,4.97
2023-04-13T14:03:20.418Z,6.18
2023-04-13T14:13:23.512Z,8.85
2023-04-13T14:23:28.107Z,4.13
2023-04-13T14:33:32.502Z,3.60
2023-04-13T14:43:36.993Z,3.67
2023-04-13T14:53:39.736Z,6.07
2023-04-13T15:03:49.576Z,3.53
2023-04-13T15:13:53.060Z,3.15
2023-04-13T15:23:58.665Z,3.70
2023-04-13T15:34:01.548Z,5.93
2023-04-13T15:44:04.072Z,7.30
2023-04-13T15:54:06.272Z,3.97
2023-04-13T16:04:11.563Z,3.72
2023-04-13T16:14:14.062Z,5.45
2023-04-13T16:24:20.361Z,6.32
2023-04-13T16:34:26.026Z,4.07
2023-04-13T16:44:31.243Z,5.90
2023-04-13T16:54:37.150Z,8.52
2023-04-13T17:04:41.051Z,8.90
2023-04-13T17:14:45.817Z,7.03
2023-04-13T17:24:50.641Z,7.55
2023-04-13T17:34:57.303Z,10.15
2023-04-13T17:45:03.567Z,10.90
2023-04-13T17:55:06.367Z,12.13
2023-04-13T18:05:15.576Z,14.23
2023-04-13T18:15:17.755Z,11.13
2023-04-13T18:25:22.371Z,12.35
2023-04-13T18:35:30.612Z,15.55
2023-04-13T18:45:32.903Z,15.57
2023-04-13T18:55:37.420Z,14.35
2023-04-13T19:05:39.764Z,14.75
2023-04-13T19:15:45.310Z,19.83
2023-04-13T19:25:50.938Z,18.27
2023-04-13T19:35:55.541Z,20.27
2023-04-13T19:45:57.967Z,20.33
2023-04-13T19:56:00.219Z,18.52
2023-04-13T20:06:03.182Z,14.93
2023-04-13T20:16:07.601Z,17.42
2023-04-13T20:26:16.826Z,17.48
2023-04-13T20:36:21.517Z,15.90
2023-04-13T20:46:25.722Z,19.58
2023-04-13T20:56:28.503Z,21.02
2023-04-13T21:06:32.110Z,16.60
2023-04-13T21:16:36.785Z,17.60
2023-04-13T21:26:39.117Z,19.20
2023-04-13T21:46:58.408Z,19.27
2023-04-13T21:57:01.711Z,17.00
2023-04-13T22:07:06.735Z,17.48
2023-04-13T22:17:12.718Z,16.20
2023-04-13T22:27:16.959Z,13.87
2023-04-13T22:37:21.694Z,11.10
2023-04-13T22:47:25.137Z,13.52
2023-04-13T22:57:27.374Z,12.10
2023-04-13T23:07:30.142Z,12.40
2023-04-13T23:17:34.808Z,11.55
2023-04-13T23:27:42.515Z,17.05
2023-04-13T23:37:54.086Z,12.47
2023-04-13T23:47:59.892Z,10.00
2023-04-13T23:58:07.062Z,9.90
